Portada
METAR-TAF:

METAR-TAF

Aeropuertos :

Pago Pago, Islas Ultramarinas de Estados Unidos

Aeropuerto Internacional de Pago Pago

latitud: 14-20S, longitud: 170-43W, altitud: 3 m

Observación

El informe se hizo hace 39 minutos, a las 23:00 UTC
Viento 8 kt del este
Temperatura 30°C
Humedad 84%
Presión 1012 hPa
Visibilidad: 19.3 km
Escasas nubes a una altura de 2000 ft
Nubes dispersas a una altura de 12000 ft
Cielo nuboso a una altura de 20000 ft

METAR: NSTU 202300Z 10008KT 12SM FEW020 SCT120 BKN200 30/27 A2987 RMK SLP117 T02990271

Hora: 12:39 (23:39 UTC)

Pronóstico

El informe se hizo hace 6 horas y 3 minutos, a las 17:36 UTC
Pronóstico válido del 20 a las 18 UTC al 21 a las 18 UTC
Viento 5 kt con dirección variable
Visibilidad: 10 km
Nubes dispersas a una altura de 1800 ft
Cielo nuboso a una altura de 4000 ft
Cielo nuboso a una altura de 10000 ft
chaparrones en las proximidades

TAF: NSTU 201736Z 2018/2118 VRB05KT P6SM VCSH SCT018 BKN040 BKN100

Observaciones y pronósticos meteorológicos de más de 4000 aeropuertos (mensajes METAR y TAF).

Los puntos amarillos y rojos representan las estaciones disponibles.

Ponga el ratón en el punto deseado para ver el nombre de la estación.

Haga clic para ver las observaciones y los pronósticos meteorológicos.

Para cambiar el mapa : haga clic en los botones verdes con una cruz de color negro para hacer un zoom, en el botón verde con un guión para alejar o en las flechas verdes para mapas adyacentes.


METAR-TAF: